Time;durP1;ratioP1;P1;durP2;ratioP2;P2;SDS_P1;SDS_P2;PMS_P1;PMS_P2;Temp;Humidity;BMP_temperature;BMP_pressure;BME280_temperature;BME280_humidity;BME280_pressure;Samples;Min_cycle;Max_cycle;Signal;HPM_P1;HPM_P2
2021/05/19 00:02:15;;;;;;;7.50;6.17;;;10.50;99.90;;;;;;5089623;28;20444;-78
2021/05/19 00:04:42;;;;;;;12.33;7.93;;;10.40;99.90;;;;;;5090901;28;20450;-79
2021/05/19 00:07:08;;;;;;;9.50;7.50;;;10.00;99.90;;;;;;5088757;28;20486;-77
2021/05/19 00:09:34;;;;;;;10.50;7.30;;;;;;;;;;5092055;28;20511;-79
2021/05/19 00:12:00;;;;;;;9.60;8.07;;;10.30;99.90;;;;;;5090327;28;20449;-78
2021/05/19 00:14:27;;;;;;;11.07;7.33;;;10.30;99.90;;;;;;5092772;28;20441;-79
2021/05/19 00:16:54;;;;;;;11.80;7.80;;;10.30;99.90;;;;;;5091337;28;20447;-79
2021/05/19 00:19:20;;;;;;;8.33;7.37;;;10.30;99.90;;;;;;5088024;28;20448;-78
2021/05/19 00:21:46;;;;;;;10.70;7.07;;;10.40;99.90;;;;;;5088559;28;20452;-78
2021/05/19 00:24:12;;;;;;;8.50;6.87;;;10.10;99.90;;;;;;5089037;28;20498;-78
2021/05/19 00:26:39;;;;;;;12.80;7.80;;;10.40;99.90;;;;;;5087483;28;20466;-78
2021/05/19 00:29:08;;;;;;;9.73;7.83;;;10.40;99.90;;;;;;5086916;28;20429;-79
2021/05/19 00:31:35;;;;;;;7.73;6.93;;;10.40;99.90;;;;;;5084322;28;20466;-79
2021/05/19 00:34:02;;;;;;;8.47;7.60;;;10.60;99.90;;;;;;5089176;28;20407;-79
2021/05/19 00:36:28;;;;;;;6.93;6.27;;;10.70;99.90;;;;;;5088057;28;20476;-79
2021/05/19 00:38:57;;;;;;;10.40;7.63;;;10.70;99.90;;;;;;5089302;28;20447;-79
2021/05/19 00:41:23;;;;;;;7.40;5.90;;;10.70;99.90;;;;;;5084618;28;20448;-81
2021/05/19 00:43:49;;;;;;;8.47;6.60;;;10.60;99.90;;;;;;5083659;28;20448;-81
2021/05/19 00:46:16;;;;;;;8.70;6.87;;;;;;;;;;5082755;28;20483;-81
2021/05/19 00:48:42;;;;;;;10.60;6.67;;;10.40;99.90;;;;;;5089145;28;20415;-81
2021/05/19 00:51:09;;;;;;;8.80;6.00;;;10.70;99.90;;;;;;5098456;28;20450;-79
2021/05/19 00:53:35;;;;;;;7.93;6.27;;;10.50;99.90;;;;;;5093909;28;20445;-79
2021/05/19 00:56:01;;;;;;;7.10;6.47;;;10.50;99.90;;;;;;5086975;28;20439;-79
2021/05/19 00:58:29;;;;;;;7.67;6.90;;;10.50;99.90;;;;;;5087433;28;21000;-80
2021/05/19 01:00:56;;;;;;;10.33;7.40;;;10.50;99.90;;;;;;5090323;28;20451;-80
2021/05/19 01:03:22;;;;;;;12.43;7.40;;;;;;;;;;5088087;28;20422;-81
2021/05/19 01:05:51;;;;;;;7.13;6.27;;;10.60;99.90;;;;;;5081298;28;20488;-81
2021/05/19 01:11:06;;;;;;;8.07;7.10;;;10.40;99.90;;;;;;5079369;28;20755;-80
2021/05/19 01:13:32;;;;;;;7.63;6.53;;;10.50;99.90;;;;;;5078713;28;20533;-80
2021/05/19 01:16:00;;;;;;;9.87;7.07;;;10.30;99.90;;;;;;5079072;28;20455;-79
2021/05/19 01:18:26;;;;;;;8.40;6.20;;;10.60;99.90;;;;;;5078757;28;20444;-80
2021/05/19 01:20:55;;;;;;;9.10;6.70;;;10.60;99.90;;;;;;5078781;28;20831;-80
2021/05/19 01:23:22;;;;;;;7.80;5.67;;;10.60;99.90;;;;;;5078712;28;20966;-80
2021/05/19 01:25:49;;;;;;;9.37;7.07;;;10.80;99.90;;;;;;5078795;28;20507;-81
2021/05/19 01:28:15;;;;;;;8.47;6.73;;;10.90;99.90;;;;;;5078337;28;20463;-82
2021/05/19 01:30:42;;;;;;;6.87;6.00;;;10.50;99.90;;;;;;5082343;28;20423;-79
2021/05/19 01:33:08;;;;;;;8.60;6.20;;;10.50;99.90;;;;;;5082693;28;20459;-79
2021/05/19 01:35:34;;;;;;;10.07;6.13;;;10.50;99.90;;;;;;5082402;28;20441;-80
2021/05/19 01:38:01;;;;;;;7.10;5.97;;;10.50;99.90;;;;;;5082701;28;20480;-80
2021/05/19 01:40:28;;;;;;;6.60;5.80;;;9.80;99.90;;;;;;5079395;28;20411;-80
2021/05/19 01:42:54;;;;;;;6.97;5.83;;;10.60;99.90;;;;;;5081895;28;20452;-78
2021/05/19 01:45:24;;;;;;;6.27;5.30;;;10.70;99.90;;;;;;5087608;28;20455;-78
2021/05/19 01:47:53;;;;;;;6.17;5.60;;;10.70;99.90;;;;;;5086111;28;20465;-78
2021/05/19 01:50:21;;;;;;;6.17;5.27;;;11.10;99.90;;;;;;5086075;28;20455;-78
2021/05/19 01:52:48;;;;;;;6.63;5.33;;;10.80;99.90;;;;;;5079652;28;20822;-80
2021/05/19 01:55:16;;;;;;;7.17;5.37;;;10.80;99.90;;;;;;5079754;28;20922;-80
2021/05/19 01:57:45;;;;;;;6.70;5.90;;;10.80;99.90;;;;;;5078333;28;20444;-80
2021/05/19 02:00:13;;;;;;;6.17;5.17;;;11.10;99.90;;;;;;5078079;28;20451;-81
2021/05/19 02:02:40;;;;;;;7.10;5.70;;;10.90;99.90;;;;;;5078405;28;20792;-80
2021/05/19 02:05:08;;;;;;;10.17;5.87;;;10.90;99.90;;;;;;5077510;28;20817;-81
2021/05/19 02:07:36;;;;;;;6.53;5.73;;;10.90;99.90;;;;;;5077773;28;20461;-81
2021/05/19 02:10:04;;;;;;;5.73;5.30;;;10.70;99.90;;;;;;5080512;28;20455;-81
2021/05/19 02:12:30;;;;;;;13.70;6.80;;;10.90;99.90;;;;;;5077626;28;20449;-81
2021/05/19 02:14:57;;;;;;;9.83;6.60;;;10.90;99.90;;;;;;5078506;28;20445;-81
2021/05/19 02:17:26;;;;;;;9.17;5.90;;;10.90;99.90;;;;;;5077937;28;20471;-80
2021/05/19 02:19:53;;;;;;;5.83;5.27;;;10.80;99.90;;;;;;5078071;28;20605;-82
2021/05/19 02:22:19;;;;;;;5.70;5.20;;;10.80;99.90;;;;;;5078678;28;20445;-80
2021/05/19 02:24:45;;;;;;;6.30;5.67;;;11.20;99.90;;;;;;5082171;28;20453;-81
2021/05/19 02:27:11;;;;;;;6.97;6.37;;;10.90;99.90;;;;;;5083091;28;20464;-81
2021/05/19 02:29:37;;;;;;;8.20;5.60;;;10.90;99.90;;;;;;5083150;28;20448;-83
2021/05/19 02:32:05;;;;;;;8.27;5.73;;;10.90;99.90;;;;;;5082485;28;20485;-83
2021/05/19 02:34:31;;;;;;;6.33;5.20;;;10.90;99.90;;;;;;5082729;28;20441;-82
2021/05/19 02:36:57;;;;;;;6.33;5.60;;;10.90;99.90;;;;;;5078373;28;20473;-80
2021/05/19 02:39:23;;;;;;;7.33;6.03;;;10.90;99.90;;;;;;5078844;28;20527;-82
2021/05/19 02:41:49;;;;;;;8.87;6.10;;;11.20;99.90;;;;;;5077982;28;20419;-81
2021/05/19 02:44:16;;;;;;;9.10;6.20;;;11.20;99.90;;;;;;5080838;28;20427;-81
2021/05/19 02:46:42;;;;;;;7.10;6.13;;;11.00;99.90;;;;;;5080797;28;20544;-81
2021/05/19 02:49:09;;;;;;;7.67;6.80;;;11.00;99.90;;;;;;5080816;28;20445;-82
2021/05/19 02:51:37;;;;;;;7.67;5.97;;;11.00;99.90;;;;;;5079142;28;20436;-80
2021/05/19 02:54:04;;;;;;;7.67;6.20;;;11.10;99.90;;;;;;5078175;28;20452;-82
2021/05/19 02:56:30;;;;;;;7.60;5.77;;;11.10;99.90;;;;;;5078534;28;20461;-81
2021/05/19 02:58:57;;;;;;;6.17;5.57;;;11.10;99.90;;;;;;5078693;28;20523;-81
2021/05/19 03:01:23;;;;;;;6.70;6.00;;;11.00;99.90;;;;;;5078925;28;20444;-79
2021/05/19 03:03:49;;;;;;;8.13;5.50;;;11.00;99.90;;;;;;5078632;28;20449;-81
2021/05/19 03:06:16;;;;;;;10.40;6.50;;;11.10;99.90;;;;;;5078496;28;20533;-80
2021/05/19 03:08:43;;;;;;;7.33;6.17;;;11.50;99.90;;;;;;5084163;28;20449;-82
2021/05/19 03:11:09;;;;;;;6.87;6.03;;;11.30;99.90;;;;;;5083589;28;20459;-80
2021/05/19 03:13:36;;;;;;;6.90;5.60;;;11.10;99.90;;;;;;5082124;28;20479;-81
2021/05/19 03:16:02;;;;;;;7.40;6.07;;;11.10;99.90;;;;;;5081227;28;20818;-80
2021/05/19 03:18:28;;;;;;;7.27;5.77;;;11.20;99.90;;;;;;5081955;28;20800;-80
2021/05/19 03:20:55;;;;;;;11.07;6.70;;;11.20;99.90;;;;;;5081553;28;20457;-79
2021/05/19 03:23:22;;;;;;;7.80;7.00;;;11.20;99.90;;;;;;5081413;28;20202;-82
2021/05/19 03:25:48;;;;;;;6.38;5.75;;;11.30;99.90;;;;;;5082037;28;20449;-80
2021/05/19 03:28:14;;;;;;;8.63;6.73;;;;;;;;;;5081998;28;20255;-79
2021/05/19 03:30:41;;;;;;;9.13;7.10;;;11.50;99.90;;;;;;5082356;28;20453;-81
2021/05/19 03:33:07;;;;;;;10.93;6.73;;;11.30;99.90;;;;;;5081875;28;20456;-81
2021/05/19 03:35:33;;;;;;;7.00;6.30;;;11.30;99.90;;;;;;5087542;28;20448;-79
2021/05/19 03:38:00;;;;;;;6.33;5.73;;;11.60;99.90;;;;;;5088996;28;20480;-79
2021/05/19 03:40:27;;;;;;;7.67;6.27;;;11.00;99.90;;;;;;5089392;28;20463;-80
2021/05/19 03:42:53;;;;;;;8.75;6.82;;;;;;;;;;5088760;28;20948;-79
2021/05/19 03:45:22;;;;;;;12.50;6.80;;;11.60;99.90;;;;;;5090272;28;20206;-78
2021/05/19 03:47:50;;;;;;;7.07;6.37;;;11.30;99.90;;;;;;5090874;28;20434;-78
2021/05/19 03:50:17;;;;;;;7.90;6.10;;;11.30;99.90;;;;;;5091510;28;20474;-78
2021/05/19 03:52:43;;;;;;;7.13;6.43;;;11.20;99.90;;;;;;5092674;28;20415;-79
2021/05/19 03:55:12;;;;;;;7.23;6.27;;;11.20;99.90;;;;;;5092039;28;20423;-80
2021/05/19 03:57:39;;;;;;;7.90;6.43;;;11.20;99.90;;;;;;5089345;28;20468;-79
2021/05/19 04:00:08;;;;;;;9.77;6.53;;;10.90;99.90;;;;;;5088157;28;20437;-79
2021/05/19 04:02:34;;;;;;;8.10;7.30;;;11.20;99.90;;;;;;5087750;28;20427;-80
2021/05/19 04:05:00;;;;;;;9.50;6.10;;;11.20;99.90;;;;;;5083474;28;20469;-80
2021/05/19 04:07:26;;;;;;;7.40;6.63;;;11.20;99.90;;;;;;5081211;28;20451;-81
2021/05/19 04:09:52;;;;;;;9.00;6.80;;;11.20;99.90;;;;;;5080083;28;20428;-80
2021/05/19 04:12:19;;;;;;;7.20;6.40;;;11.10;99.90;;;;;;5081694;28;20203;-79
2021/05/19 04:14:45;;;;;;;7.50;6.80;;;11.00;99.90;;;;;;5080587;28;20444;-82
2021/05/19 04:17:11;;;;;;;6.60;5.90;;;10.80;99.90;;;;;;5079462;28;20883;-81
2021/05/19 04:19:38;;;;;;;6.73;6.13;;;11.00;99.90;;;;;;5079906;28;20449;-81
2021/05/19 04:22:04;;;;;;;7.40;6.63;;;11.00;99.90;;;;;;5079444;28;20958;-81
2021/05/19 04:24:30;;;;;;;10.30;7.70;;;11.10;99.90;;;;;;5078985;28;20425;-81
2021/05/19 04:26:56;;;;;;;8.90;7.70;;;11.10;99.90;;;;;;5079025;28;20450;-81
2021/05/19 04:29:23;;;;;;;11.07;8.13;;;11.20;99.90;;;;;;5079466;28;20210;-81
2021/05/19 04:31:49;;;;;;;11.37;8.03;;;11.00;99.90;;;;;;5080332;28;20430;-81
2021/05/19 04:34:17;;;;;;;11.07;8.40;;;11.40;99.90;;;;;;5085681;28;20452;-82
2021/05/19 04:36:43;;;;;;;9.20;7.87;;;;;;;;;;5095788;28;20423;-81
2021/05/19 04:39:10;;;;;;;8.23;7.33;;;;;;;;;;5091329;28;20419;-82
2021/05/19 04:41:36;;;;;;;7.97;7.10;;;11.10;99.90;;;;;;5092127;28;20452;-81
2021/05/19 04:44:02;;;;;;;9.10;8.20;;;10.90;99.90;;;;;;5091814;28;20436;-81
2021/05/19 04:46:29;;;;;;;10.07;7.47;;;11.10;99.90;;;;;;5090885;28;20484;-81
2021/05/19 04:48:59;;;;;;;11.30;7.43;;;10.90;99.90;;;;;;5089415;28;20452;-81
2021/05/19 04:51:25;;;;;;;9.63;8.50;;;10.90;99.90;;;;;;5091273;28;20412;-82
2021/05/19 04:53:51;;;;;;;11.20;8.93;;;11.10;99.90;;;;;;5088295;28;20948;-82
2021/05/19 04:56:18;;;;;;;11.20;9.10;;;11.00;99.90;;;;;;5089978;28;20458;-80
2021/05/19 04:58:44;;;;;;;14.63;8.80;;;10.90;99.90;;;;;;5087044;28;20522;-81
2021/05/19 05:01:10;;;;;;;9.43;7.60;;;11.10;99.90;;;;;;5086008;28;20440;-81
2021/05/19 05:03:36;;;;;;;9.70;8.40;;;11.50;99.90;;;;;;5086338;28;20448;-81
2021/05/19 05:06:03;;;;;;;9.63;8.50;;;11.30;99.90;;;;;;5084462;28;20467;-83
2021/05/19 05:08:29;;;;;;;8.70;7.90;;;11.10;99.90;;;;;;5084269;28;20448;-81
2021/05/19 05:10:56;;;;;;;8.63;7.63;;;11.20;99.90;;;;;;5081928;28;20471;-81
2021/05/19 05:13:23;;;;;;;10.00;8.57;;;11.20;99.90;;;;;;5080755;28;20939;-81
2021/05/19 05:15:49;;;;;;;13.37;9.73;;;11.80;99.90;;;;;;5080554;28;20455;-80
2021/05/19 05:18:15;;;;;;;11.27;8.93;;;11.40;99.90;;;;;;5079756;28;20411;-80
2021/05/19 05:20:41;;;;;;;9.67;8.67;;;11.40;99.90;;;;;;5080792;28;20423;-80
2021/05/19 05:23:08;;;;;;;11.67;8.83;;;11.30;99.90;;;;;;5080754;28;20437;-81
2021/05/19 05:25:34;;;;;;;9.60;8.00;;;11.30;99.90;;;;;;5084394;28;20799;-78
2021/05/19 05:28:00;;;;;;;11.10;8.03;;;11.30;99.90;;;;;;5086541;28;20460;-80
2021/05/19 05:30:26;;;;;;;10.70;7.73;;;11.40;99.90;;;;;;5088687;28;20427;-80
2021/05/19 05:32:52;;;;;;;10.33;8.27;;;11.30;99.90;;;;;;5082489;28;20422;-82
2021/05/19 05:35:19;;;;;;;9.50;7.90;;;11.40;99.90;;;;;;5080431;28;20504;-82
2021/05/19 05:37:45;;;;;;;10.03;8.73;;;11.40;99.90;;;;;;5078875;28;20451;-81
2021/05/19 05:40:12;;;;;;;10.10;8.10;;;11.50;99.90;;;;;;5082917;28;20449;-82
2021/05/19 05:42:39;;;;;;;10.13;7.63;;;11.50;99.90;;;;;;5082295;28;20448;-82
2021/05/19 05:45:07;;;;;;;9.30;8.10;;;11.50;99.90;;;;;;5080874;28;20444;-82
2021/05/19 05:47:33;;;;;;;9.30;7.97;;;11.60;99.90;;;;;;5083313;28;20443;-81
2021/05/19 05:50:02;;;;;;;11.80;8.17;;;11.50;99.90;;;;;;5080612;28;20925;-79
2021/05/19 05:52:28;;;;;;;9.80;7.50;;;11.40;99.90;;;;;;5079680;28;20491;-80
2021/05/19 05:54:54;;;;;;;9.80;8.20;;;11.60;99.90;;;;;;5078276;28;20451;-82
2021/05/19 05:57:21;;;;;;;9.23;8.23;;;11.60;99.90;;;;;;5078861;28;20460;-79
2021/05/19 05:59:47;;;;;;;7.90;6.90;;;11.80;99.90;;;;;;5078683;28;20463;-80
2021/05/19 06:02:14;;;;;;;9.43;7.40;;;;;;;;;;5079840;28;20445;-80
2021/05/19 06:04:40;;;;;;;9.80;7.47;;;11.70;99.90;;;;;;5079028;28;20484;-81
2021/05/19 06:07:06;;;;;;;13.63;8.30;;;11.60;99.90;;;;;;5078995;28;20456;-81
2021/05/19 06:09:33;;;;;;;7.80;7.07;;;11.10;99.90;;;;;;5079935;28;20495;-80
2021/05/19 06:11:59;;;;;;;9.27;8.07;;;12.20;99.90;;;;;;5079156;28;20440;-81
2021/05/19 06:14:26;;;;;;;7.83;6.70;;;11.80;99.90;;;;;;5078837;28;20411;-81
2021/05/19 06:16:52;;;;;;;8.47;7.60;;;11.90;99.90;;;;;;5078784;28;20493;-83
2021/05/19 06:19:18;;;;;;;9.60;6.73;;;12.00;99.90;;;;;;5079172;28;21030;-79
2021/05/19 06:22:01;;;;;;;;;;;;;;;;;;;;;
2021/05/19 06:24:38;;;;;;;7.00;5.77;;;;;;;;;;5038426;28;20641;-81
2021/05/19 06:48:15;;;;;;;6.60;6.07;;;;;;;;;;4860238;29;20821;-81
2021/05/19 06:51:02;;;;;;;5.70;5.13;;;;;;;;;;4930715;29;20942;-81
2021/05/19 07:00:15;;;;;;;7.87;5.97;;;;;;;;;;4936696;29;20422;-80
2021/05/19 07:02:44;;;;;;;5.50;5.00;;;;;;;;;;4990257;22;20518;-80
2021/05/19 07:05:14;;;;;;;5.03;4.10;;;13.10;99.90;;;;;;5046098;28;20464;-81
2021/05/19 07:07:41;;;;;;;5.77;4.60;;;13.30;99.90;;;;;;5042571;28;20478;-81
2021/05/19 07:10:08;;;;;;;4.80;4.30;;;13.20;99.90;;;;;;5042820;28;20439;-80
2021/05/19 07:12:34;;;;;;;5.73;3.23;;;13.30;99.90;;;;;;5051782;28;21004;-81
2021/05/19 07:15:23;;;;;;;4.40;4.00;;;13.10;99.90;;;;;;5064557;28;20453;-80
2021/05/19 07:17:52;;;;;;;4.40;4.00;;;13.10;99.90;;;;;;5067430;28;20883;-81
2021/05/19 07:20:19;;;;;;;4.47;3.90;;;14.60;99.90;;;;;;5077690;28;20472;-80
2021/05/19 07:22:47;;;;;;;4.83;4.17;;;;;;;;;;5074398;28;20473;-80
2021/05/19 07:25:13;;;;;;;3.63;2.97;;;14.10;99.90;;;;;;5067723;28;20933;-80
2021/05/19 07:27:40;;;;;;;3.53;3.23;;;13.90;99.90;;;;;;5061529;28;20438;-80
2021/05/19 07:30:08;;;;;;;4.17;3.40;;;13.80;99.90;;;;;;5061458;28;20455;-80
2021/05/19 07:32:35;;;;;;;4.10;3.80;;;14.00;99.90;;;;;;5061814;28;20499;-81
2021/05/19 07:35:02;;;;;;;7.47;3.40;;;13.90;99.90;;;;;;5062358;28;20491;-81
2021/05/19 07:37:30;;;;;;;4.13;3.40;;;14.10;99.90;;;;;;5063122;28;20898;-80
2021/05/19 07:39:57;;;;;;;3.83;3.47;;;13.90;99.90;;;;;;5062739;28;20433;-80
2021/05/19 07:49:32;;;;;;;6.50;3.37;;;;;;;;;;4967539;28;20453;-81
2021/05/19 07:55:58;;;;;;;5.43;3.50;;;14.20;99.90;;;;;;5080653;28;20431;-81
2021/05/19 08:02:07;;;;;;;11.73;6.10;;;;;;;;;;4997445;28;20435;-82
2021/05/19 08:14:37;;;;;;;4.53;3.30;;;;;;;;;;4956465;28;20465;-81
2021/05/19 08:17:19;;;;;;;3.50;3.20;;;;;;;;;;4978567;28;20512;-82
2021/05/19 08:19:46;;;;;;;3.37;3.03;;;;;;;;;;5072109;28;20451;-81
2021/05/19 08:22:25;;;;;;;4.13;3.50;;;14.40;99.90;;;;;;5086891;28;20469;-82
2021/05/19 08:25:00;;;;;;;5.80;4.50;;;;;;;;;;5085947;28;20433;-81
2021/05/19 08:27:35;;;;;;;3.90;3.20;;;;;;;;;;5086979;28;20460;-82
2021/05/19 08:30:33;;;;;;;6.20;5.40;;;14.70;99.90;;;;;;5086878;28;20450;-82
2021/05/19 08:36:07;;;;;;;4.30;3.57;;;;;;;;;;5074840;28;20461;-81
2021/05/19 08:44:41;;;;;;;4.03;3.13;;;;;;;;;;5087747;22;20490;-81
2021/05/19 08:47:39;;;;;;;5.37;3.43;;;;;;;;;;5068302;28;20506;-82
2021/05/19 08:53:44;;;;;;;3.27;3.00;;;;;;;;;;5037952;28;20480;-82
2021/05/19 08:59:09;;;;;;;3.23;2.93;;;15.20;99.90;;;;;;5079173;28;20970;-82
2021/05/19 09:01:40;;;;;;;6.07;4.30;;;15.30;99.90;;;;;;5076668;28;20419;-78
2021/05/19 09:04:07;;;;;;;3.40;3.10;;;15.30;99.90;;;;;;5076910;28;20425;-80
2021/05/19 09:06:34;;;;;;;4.07;3.70;;;15.30;99.90;;;;;;5077488;28;20487;-79
2021/05/19 09:09:00;;;;;;;3.53;2.97;;;15.20;99.90;;;;;;5077086;28;20452;-79
2021/05/19 09:11:26;;;;;;;4.13;3.30;;;15.20;99.90;;;;;;5079155;28;20440;-83
2021/05/19 09:13:52;;;;;;;4.03;3.53;;;15.10;99.90;;;;;;5079913;28;20443;-81
2021/05/19 09:16:27;;;;;;;3.50;3.20;;;15.20;99.90;;;;;;5085800;28;20452;-84
2021/05/19 09:18:55;;;;;;;4.37;3.50;;;15.20;99.90;;;;;;5083391;28;20416;-83
2021/05/19 09:21:36;;;;;;;2.97;2.77;;;15.30;99.90;;;;;;5081285;28;20456;-83
2021/05/19 09:24:09;;;;;;;3.23;2.93;;;15.40;99.90;;;;;;5082434;28;20453;-83
2021/05/19 09:26:50;;;;;;;3.27;2.97;;;15.40;99.90;;;;;;5080105;28;20556;-81
2021/05/19 09:29:20;;;;;;;3.53;3.23;;;15.30;99.90;;;;;;5077995;28;20794;-80
2021/05/19 09:31:52;;;;;;;3.83;3.33;;;15.10;99.90;;;;;;5078814;28;20444;-80
2021/05/19 09:34:25;;;;;;;3.20;3.00;;;15.00;99.90;;;;;;5079528;28;20444;-80
2021/05/19 09:36:53;;;;;;;4.27;2.80;;;15.20;99.90;;;;;;5079071;28;20445;-79
2021/05/19 09:39:19;;;;;;;2.73;2.53;;;15.30;99.90;;;;;;5079815;28;20475;-80
2021/05/19 09:41:45;;;;;;;3.60;3.30;;;15.20;99.90;;;;;;5062358;28;20797;-80
2021/05/19 09:44:13;;;;;;;4.40;3.33;;;15.60;99.90;;;;;;5082495;28;20428;-80
2021/05/19 09:46:47;;;;;;;3.23;2.20;;;15.40;99.90;;;;;;5083246;28;20506;-80
2021/05/19 09:49:18;;;;;;;2.97;2.77;;;15.70;99.90;;;;;;5080832;28;20485;-80
2021/05/19 09:51:47;;;;;;;2.30;2.20;;;15.80;99.90;;;;;;5080102;28;21005;-80
2021/05/19 09:54:27;;;;;;;2.77;2.50;;;15.80;99.90;;;;;;5079652;28;20451;-80
2021/05/19 09:56:55;;;;;;;2.13;2.00;;;15.60;99.90;;;;;;5080240;28;20449;-81
2021/05/19 09:59:22;;;;;;;3.00;2.40;;;15.40;99.90;;;;;;5077557;28;20457;-79
2021/05/19 10:01:49;;;;;;;6.97;3.43;;;15.70;99.90;;;;;;5079058;28;20480;-79
2021/05/19 10:04:15;;;;;;;2.60;2.40;;;15.20;99.90;;;;;;5080870;28;20455;-79
2021/05/19 10:06:43;;;;;;;2.17;2.07;;;15.50;99.90;;;;;;5080949;28;20561;-79
2021/05/19 10:09:09;;;;;;;4.00;2.10;;;15.40;99.90;;;;;;5079554;28;20516;-79
2021/05/19 10:11:35;;;;;;;2.03;1.93;;;15.60;99.90;;;;;;5080578;28;20445;-78
2021/05/19 10:14:04;;;;;;;2.70;2.50;;;15.60;99.90;;;;;;5079566;28;20456;-79
2021/05/19 10:16:31;;;;;;;4.40;2.07;;;15.50;99.90;;;;;;5078988;28;20436;-79
2021/05/19 10:18:58;;;;;;;2.47;2.27;;;;;;;;;;5080701;28;20460;-79
2021/05/19 10:21:29;;;;;;;2.23;2.13;;;15.50;99.90;;;;;;5080518;28;20923;-78
2021/05/19 10:24:03;;;;;;;3.83;2.40;;;15.70;99.90;;;;;;5079929;28;20469;-79
2021/05/19 10:26:32;;;;;;;2.60;2.40;;;15.80;99.90;;;;;;5084122;28;20471;-78
2021/05/19 10:28:59;;;;;;;6.40;2.50;;;;;;;;;;5082327;28;20444;-78
2021/05/19 10:31:27;;;;;;;4.93;2.83;;;15.70;99.90;;;;;;5080859;28;20460;-78
2021/05/19 10:33:55;;;;;;;5.70;5.10;;;14.60;99.90;;;;;;5081974;28;20468;-78
2021/05/19 10:36:36;;;;;;;3.90;2.80;;;15.90;99.90;;;;;;5080836;28;20445;-79
2021/05/19 10:39:28;;;;;;;4.40;2.53;;;16.00;99.90;;;;;;5082912;28;20424;-78
2021/05/19 10:41:56;;;;;;;3.63;2.80;;;16.10;99.90;;;;;;5078810;28;20472;-78
2021/05/19 10:44:28;;;;;;;2.60;2.27;;;16.20;99.90;;;;;;5081660;28;20480;-79
2021/05/19 10:46:58;;;;;;;2.43;2.23;;;16.00;99.90;;;;;;5081212;28;21030;-78
2021/05/19 10:50:12;;;;;;;2.07;1.87;;;15.80;99.90;;;;;;5080319;28;20538;-80
2021/05/19 10:58:30;;;;;;;2.50;1.90;;;16.00;99.90;;;;;;5079825;28;20459;-77
2021/05/19 11:00:56;;;;;;;2.00;1.90;;;16.10;99.90;;;;;;5077342;28;20476;-78
2021/05/19 11:03:23;;;;;;;2.10;1.90;;;16.20;99.90;;;;;;5076759;28;20529;-78
2021/05/19 11:06:10;;;;;;;2.33;2.00;;;16.30;99.90;;;;;;5077703;28;20472;-77
2021/05/19 11:08:38;;;;;;;1.53;1.43;;;16.30;99.90;;;;;;5088617;28;20441;-76
2021/05/19 11:11:21;;;;;;;2.27;1.80;;;16.50;99.90;;;;;;5089001;28;20444;-76
2021/05/19 11:17:02;;;;;;;2.80;2.60;;;16.50;99.90;;;;;;5074847;28;20426;-77
2021/05/19 11:19:33;;;;;;;1.83;1.67;;;16.50;99.90;;;;;;5074550;28;20432;-76
2021/05/19 11:22:06;;;;;;;1.87;1.70;;;16.30;99.90;;;;;;5072765;28;20990;-76
2021/05/19 11:24:54;;;;;;;4.10;3.23;;;16.20;99.90;;;;;;5073795;28;20448;-77
2021/05/19 11:27:22;;;;;;;2.87;2.67;;;16.10;99.90;;;;;;5073466;28;20989;-77
2021/05/19 11:29:48;;;;;;;2.50;1.83;;;16.00;99.90;;;;;;5077271;28;20478;-77
2021/05/19 11:32:19;;;;;;;2.70;2.20;;;15.70;99.90;;;;;;5077134;28;20468;-77
2021/05/19 11:34:47;;;;;;;2.10;1.90;;;15.80;99.90;;;;;;5077286;28;20475;-78
2021/05/19 11:37:15;;;;;;;2.33;2.10;;;15.70;99.90;;;;;;5079161;28;20441;-77
2021/05/19 11:39:45;;;;;;;2.87;2.67;;;15.60;99.90;;;;;;5079396;28;20451;-77
2021/05/19 11:42:14;;;;;;;5.47;2.20;;;15.50;99.90;;;;;;5078335;28;20579;-78
2021/05/19 11:44:42;;;;;;;2.30;2.10;;;15.60;99.90;;;;;;5076311;28;20448;-77
2021/05/19 11:47:09;;;;;;;2.70;2.37;;;15.50;99.90;;;;;;5076137;28;20567;-77
2021/05/19 11:49:36;;;;;;;2.60;1.88;;;15.20;99.90;;;;;;5078546;28;20434;-77
2021/05/19 11:52:02;;;;;;;4.70;1.90;;;15.40;99.90;;;;;;5080178;28;20226;-77
2021/05/19 11:54:29;;;;;;;3.00;1.90;;;15.60;99.90;;;;;;5081975;28;20449;-77
2021/05/19 11:56:57;;;;;;;2.70;1.73;;;15.80;99.90;;;;;;5083943;28;20464;-77
2021/05/19 11:59:26;;;;;;;3.80;2.37;;;16.10;99.90;;;;;;5081989;28;20531;-78
2021/05/19 12:01:58;;;;;;;2.00;1.90;;;16.10;99.90;;;;;;5079312;28;20881;-78
2021/05/19 12:04:26;;;;;;;1.70;1.60;;;16.20;99.90;;;;;;5076298;28;20850;-77
2021/05/19 12:06:52;;;;;;;2.00;1.90;;;16.20;99.90;;;;;;5075329;28;20866;-77
2021/05/19 12:09:19;;;;;;;2.17;2.00;;;16.10;99.90;;;;;;5076068;28;20872;-78
2021/05/19 12:11:45;;;;;;;3.20;3.00;;;16.20;99.90;;;;;;5078899;28;20467;-78
2021/05/19 12:14:12;;;;;;;2.30;2.20;;;16.30;99.90;;;;;;5077002;28;20586;-76
2021/05/19 12:16:39;;;;;;;2.70;1.80;;;16.40;99.90;;;;;;5075164;28;20448;-76
2021/05/19 12:19:09;;;;;;;2.27;2.00;;;16.50;99.90;;;;;;5075374;28;20943;-77
2021/05/19 12:21:37;;;;;;;2.10;1.90;;;16.40;99.90;;;;;;5075097;28;20585;-77
2021/05/19 12:24:05;;;;;;;2.60;2.13;;;16.60;99.90;;;;;;5076674;28;20472;-77
2021/05/19 12:26:32;;;;;;;2.83;2.37;;;16.90;99.90;;;;;;5077225;28;20847;-78
2021/05/19 12:28:58;;;;;;;2.00;1.80;;;16.70;99.90;;;;;;5076511;28;20448;-77
2021/05/19 12:31:25;;;;;;;1.80;1.70;;;16.80;99.90;;;;;;5077116;28;20456;-78
2021/05/19 12:33:52;;;;;;;1.53;1.43;;;16.80;99.90;;;;;;5077198;28;20464;-78
2021/05/19 12:36:26;;;;;;;4.40;1.67;;;17.10;99.90;;;;;;5077855;28;20931;-78
2021/05/19 12:38:55;;;;;;;4.07;1.73;;;17.10;99.90;;;;;;5081269;28;20444;-78
2021/05/19 12:41:40;;;;;;;1.90;1.80;;;17.20;99.90;;;;;;5076875;28;20455;-77
2021/05/19 12:44:06;;;;;;;1.90;1.80;;;17.00;99.90;;;;;;5076638;28;20436;-77
2021/05/19 12:46:32;;;;;;;1.93;1.60;;;17.20;99.90;;;;;;5076034;28;20476;-77
2021/05/19 12:49:05;;;;;;;5.23;1.80;;;17.00;99.90;;;;;;5074447;28;21001;-77
2021/05/19 12:51:48;;;;;;;1.40;1.30;;;16.50;99.90;;;;;;5074991;28;20439;-77
2021/05/19 12:54:20;;;;;;;2.90;1.90;;;16.80;99.90;;;;;;5074728;28;20864;-77
2021/05/19 12:56:46;;;;;;;1.70;1.60;;;16.80;99.90;;;;;;5074816;28;20474;-77
2021/05/19 12:59:12;;;;;;;3.80;2.13;;;16.80;99.90;;;;;;5074559;28;20935;-76
2021/05/19 13:01:43;;;;;;;1.73;1.63;;;17.30;99.90;;;;;;5078742;28;20445;-79
2021/05/19 13:04:10;;;;;;;7.07;4.70;;;17.00;99.90;;;;;;5079826;28;20436;-78
2021/05/19 13:06:36;;;;;;;4.33;2.97;;;;;;;;;;5078230;28;20529;-78
2021/05/19 13:09:06;;;;;;;3.00;1.83;;;16.90;99.90;;;;;;5080315;28;20452;-82
2021/05/19 13:11:34;;;;;;;2.13;1.80;;;17.00;99.90;;;;;;5079575;28;20444;-78
2021/05/19 13:14:02;;;;;;;5.10;3.93;;;16.60;99.90;;;;;;5078111;28;20445;-79
2021/05/19 13:16:32;;;;;;;2.00;1.60;;;16.80;99.90;;;;;;5077162;28;20444;-77
2021/05/19 13:19:03;;;;;;;2.10;1.90;;;17.00;99.90;;;;;;5076880;28;20452;-79
2021/05/19 13:21:36;;;;;;;1.90;1.67;;;17.00;99.90;;;;;;5077563;28;20982;-80
2021/05/19 13:24:05;;;;;;;2.33;2.23;;;17.10;99.90;;;;;;5081156;28;20509;-79
2021/05/19 13:26:34;;;;;;;2.63;1.90;;;17.20;99.90;;;;;;5080340;28;20488;-79
2021/05/19 13:29:01;;;;;;;1.77;1.60;;;17.30;99.90;;;;;;5077000;28;20448;-80
2021/05/19 13:31:31;;;;;;;2.43;2.00;;;17.40;99.90;;;;;;5077731;28;20797;-80
2021/05/19 13:36:45;;;;;;;1.80;1.70;;;;;;;;;;5074677;28;20961;-79
2021/05/19 13:39:15;;;;;;;2.03;1.90;;;17.60;99.90;;;;;;5079342;28;20444;-79
2021/05/19 13:41:42;;;;;;;1.70;1.60;;;17.50;99.90;;;;;;5077514;28;20447;-79
2021/05/19 13:44:09;;;;;;;11.07;6.77;;;17.70;99.90;;;;;;5079558;28;20459;-79
2021/05/19 13:46:37;;;;;;;1.60;1.50;;;17.70;99.90;;;;;;5080218;28;20484;-79
2021/05/19 13:49:16;;;;;;;3.97;3.17;;;17.60;99.90;;;;;;5080434;28;20510;-80
2021/05/19 13:51:44;;;;;;;2.13;1.53;;;18.10;99.90;;;;;;5078049;28;20433;-80
2021/05/19 13:54:10;;;;;;;2.37;1.60;;;17.80;99.90;;;;;;5079589;28;20946;-79
2021/05/19 13:56:37;;;;;;;2.20;1.57;;;17.60;99.90;;;;;;5078335;28;20467;-80
2021/05/19 13:59:04;;;;;;;2.00;1.80;;;17.80;99.90;;;;;;5078317;28;20531;-80
2021/05/19 14:01:30;;;;;;;3.07;1.53;;;17.90;99.90;;;;;;5081510;28;20962;-81
2021/05/19 14:03:58;;;;;;;1.87;1.73;;;17.90;99.90;;;;;;5081377;28;20458;-78
2021/05/19 14:06:24;;;;;;;3.57;1.57;;;17.90;99.90;;;;;;5087769;28;20487;-80
2021/05/19 14:08:51;;;;;;;2.47;1.83;;;17.90;99.90;;;;;;5087059;28;20456;-79
2021/05/19 14:11:19;;;;;;;1.47;1.37;;;18.10;99.90;;;;;;5090243;28;20448;-81
2021/05/19 14:13:49;;;;;;;1.93;1.83;;;18.20;99.90;;;;;;5088532;28;20491;-81
2021/05/19 14:16:34;;;;;;;3.80;1.70;;;18.30;99.90;;;;;;5083192;28;20471;-83
2021/05/19 14:19:23;;;;;;;1.77;1.67;;;18.10;99.90;;;;;;5082133;28;20464;-81
2021/05/19 14:27:19;;;;;;;1.73;1.23;;;18.00;99.90;;;;;;5079090;28;20578;-81
2021/05/19 14:29:46;;;;;;;6.47;3.60;;;17.90;99.20;;;;;;5079575;28;20547;-81
2021/05/19 14:32:12;;;;;;;1.60;1.50;;;17.90;98.40;;;;;;5081291;28;20852;-81